sensor_id;sensor_type;location;lat;lon;timestamp;pressure;altitude;pressure_sealevel;temperature;humidity
63708;BME280;50270;-25.964;28.072;2022-07-29T00:01:55;85879.51;;;15.48;32.77
63708;BME280;50270;-25.964;28.072;2022-07-29T00:04:23;85876.19;;;15.88;32.62
63708;BME280;50270;-25.964;28.072;2022-07-29T00:06:52;85871.79;;;15.76;32.74
63708;BME280;50270;-25.964;28.072;2022-07-29T00:09:21;85870.81;;;15.92;32.56
63708;BME280;50270;-25.964;28.072;2022-07-29T00:11:49;85870.63;;;15.82;32.70
63708;BME280;50270;-25.964;28.072;2022-07-29T00:14:17;85864.61;;;15.85;32.67
63708;BME280;50270;-25.964;28.072;2022-07-29T00:16:46;85862.95;;;15.96;32.55
63708;BME280;50270;-25.964;28.072;2022-07-29T00:19:15;85863.40;;;15.96;32.66
63708;BME280;50270;-25.964;28.072;2022-07-29T00:21:44;85861.74;;;15.98;32.63
63708;BME280;50270;-25.964;28.072;2022-07-29T00:24:13;85866.48;;;15.89;32.63
63708;BME280;50270;-25.964;28.072;2022-07-29T00:26:41;85866.29;;;15.89;32.58
63708;BME280;50270;-25.964;28.072;2022-07-29T00:29:14;85867.56;;;15.75;32.80
63708;BME280;50270;-25.964;28.072;2022-07-29T00:31:42;85873.10;;;15.78;32.73
63708;BME280;50270;-25.964;28.072;2022-07-29T00:34:11;85870.93;;;15.49;32.77
63708;BME280;50270;-25.964;28.072;2022-07-29T00:36:40;85868.44;;;15.75;32.75
63708;BME280;50270;-25.964;28.072;2022-07-29T00:39:09;85867.71;;;15.70;32.85
63708;BME280;50270;-25.964;28.072;2022-07-29T00:41:37;85866.68;;;15.71;32.84
63708;BME280;50270;-25.964;28.072;2022-07-29T00:44:06;85868.58;;;15.57;33.02
63708;BME280;50270;-25.964;28.072;2022-07-29T00:46:34;85860.10;;;15.68;32.88
63708;BME280;50270;-25.964;28.072;2022-07-29T00:49:03;85858.59;;;15.67;32.90
63708;BME280;50270;-25.964;28.072;2022-07-29T00:51:32;85858.84;;;15.55;33.02
63708;BME280;50270;-25.964;28.072;2022-07-29T00:54:01;85855.28;;;15.33;33.31
63708;BME280;50270;-25.964;28.072;2022-07-29T00:56:31;85854.10;;;15.52;33.11
63708;BME280;50270;-25.964;28.072;2022-07-29T00:59:00;85852.23;;;15.78;33.10
63708;BME280;50270;-25.964;28.072;2022-07-29T01:01:29;85846.80;;;15.57;33.03
63708;BME280;50270;-25.964;28.072;2022-07-29T01:03:57;85842.03;;;15.47;33.22
63708;BME280;50270;-25.964;28.072;2022-07-29T01:06:27;85833.19;;;15.42;33.25
63708;BME280;50270;-25.964;28.072;2022-07-29T01:08:55;85834.21;;;15.47;33.20
63708;BME280;50270;-25.964;28.072;2022-07-29T01:11:24;85833.01;;;15.57;33.01
63708;BME280;50270;-25.964;28.072;2022-07-29T01:13:53;85832.79;;;15.60;33.02
63708;BME280;50270;-25.964;28.072;2022-07-29T01:16:27;85842.16;;;15.66;33.42
63708;BME280;50270;-25.964;28.072;2022-07-29T01:19:19;85848.27;;;15.26;33.43
63708;BME280;50270;-25.964;28.072;2022-07-29T01:21:57;85851.55;;;15.36;33.28
63708;BME280;50270;-25.964;28.072;2022-07-29T01:24:45;85850.24;;;15.30;33.43
63708;BME280;50270;-25.964;28.072;2022-07-29T01:27:30;85855.21;;;15.27;33.41
63708;BME280;50270;-25.964;28.072;2022-07-29T01:30:03;85854.86;;;15.27;33.40
63708;BME280;50270;-25.964;28.072;2022-07-29T01:32:35;85860.05;;;15.33;33.34
63708;BME280;50270;-25.964;28.072;2022-07-29T01:35:09;85863.54;;;15.34;33.32
63708;BME280;50270;-25.964;28.072;2022-07-29T01:37:45;85867.91;;;15.30;33.39
63708;BME280;50270;-25.964;28.072;2022-07-29T01:40:20;85866.58;;;15.20;33.50
63708;BME280;50270;-25.964;28.072;2022-07-29T01:42:52;85869.01;;;15.22;33.49
63708;BME280;50270;-25.964;28.072;2022-07-29T01:45:26;85864.22;;;15.16;33.56
63708;BME280;50270;-25.964;28.072;2022-07-29T01:48:02;85858.85;;;15.22;33.48
63708;BME280;50270;-25.964;28.072;2022-07-29T01:50:35;85858.65;;;15.24;33.43
63708;BME280;50270;-25.964;28.072;2022-07-29T01:53:08;85862.28;;;15.24;33.47
63708;BME280;50270;-25.964;28.072;2022-07-29T01:55:40;85867.10;;;15.27;33.41
63708;BME280;50270;-25.964;28.072;2022-07-29T01:58:12;85868.20;;;15.32;33.37
63708;BME280;50270;-25.964;28.072;2022-07-29T02:00:43;85863.78;;;15.54;33.32
63708;BME280;50270;-25.964;28.072;2022-07-29T02:03:14;85858.64;;;15.26;33.39
63708;BME280;50270;-25.964;28.072;2022-07-29T02:05:45;85851.85;;;15.15;33.50
63708;BME280;50270;-25.964;28.072;2022-07-29T02:08:17;85848.52;;;15.10;33.57
63708;BME280;50270;-25.964;28.072;2022-07-29T02:10:48;85846.71;;;15.44;33.39
63708;BME280;50270;-25.964;28.072;2022-07-29T02:13:18;85842.66;;;15.30;33.54
63708;BME280;50270;-25.964;28.072;2022-07-29T02:15:51;85841.78;;;15.19;33.48
63708;BME280;50270;-25.964;28.072;2022-07-29T02:18:23;85840.83;;;15.15;33.47
63708;BME280;50270;-25.964;28.072;2022-07-29T02:20:54;85835.63;;;15.03;33.62
63708;BME280;50270;-25.964;28.072;2022-07-29T02:23:24;85830.24;;;15.01;33.67
63708;BME280;50270;-25.964;28.072;2022-07-29T02:25:56;85832.82;;;15.44;33.46
63708;BME280;50270;-25.964;28.072;2022-07-29T02:28:27;85832.22;;;15.02;33.63
63708;BME280;50270;-25.964;28.072;2022-07-29T02:30:59;85833.48;;;15.01;33.68
63708;BME280;50270;-25.964;28.072;2022-07-29T02:33:30;85827.42;;;15.29;33.61
63708;BME280;50270;-25.964;28.072;2022-07-29T02:36:00;85827.87;;;15.32;33.54
63708;BME280;50270;-25.964;28.072;2022-07-29T02:38:30;85825.90;;;14.77;33.67
63708;BME280;50270;-25.964;28.072;2022-07-29T02:41:01;85835.39;;;14.97;33.73
63708;BME280;50270;-25.964;28.072;2022-07-29T02:43:32;85839.64;;;14.95;33.77
63708;BME280;50270;-25.964;28.072;2022-07-29T02:46:04;85847.80;;;15.07;33.62
63708;BME280;50270;-25.964;28.072;2022-07-29T02:48:38;85852.09;;;15.08;33.59
63708;BME280;50270;-25.964;28.072;2022-07-29T02:51:16;85858.49;;;15.22;33.62
63708;BME280;50270;-25.964;28.072;2022-07-29T02:53:51;85856.00;;;15.30;33.43
63708;BME280;50270;-25.964;28.072;2022-07-29T02:56:25;85859.31;;;15.39;33.50
63708;BME280;50270;-25.964;28.072;2022-07-29T02:58:58;85864.31;;;15.33;33.58
63708;BME280;50270;-25.964;28.072;2022-07-29T03:01:32;85864.48;;;15.03;33.71
63708;BME280;50270;-25.964;28.072;2022-07-29T03:04:05;85866.56;;;14.95;33.81
63708;BME280;50270;-25.964;28.072;2022-07-29T03:06:34;85867.73;;;14.86;33.95
63708;BME280;50270;-25.964;28.072;2022-07-29T03:09:03;85866.95;;;14.77;34.07
63708;BME280;50270;-25.964;28.072;2022-07-29T03:11:32;85872.11;;;15.42;33.88
63708;BME280;50270;-25.964;28.072;2022-07-29T03:14:01;85870.64;;;15.08;33.95
63708;BME280;50270;-25.964;28.072;2022-07-29T03:16:30;85871.38;;;15.00;33.82
63708;BME280;50270;-25.964;28.072;2022-07-29T03:18:59;85866.25;;;14.87;33.92
63708;BME280;50270;-25.964;28.072;2022-07-29T03:21:28;85861.25;;;14.83;33.99
63708;BME280;50270;-25.964;28.072;2022-07-29T03:23:57;85858.09;;;14.84;34.00
63708;BME280;50270;-25.964;28.072;2022-07-29T03:26:25;85852.57;;;14.89;33.97
63708;BME280;50270;-25.964;28.072;2022-07-29T03:28:54;85855.23;;;14.79;34.04
63708;BME280;50270;-25.964;28.072;2022-07-29T03:31:23;85865.07;;;15.11;33.92
63708;BME280;50270;-25.964;28.072;2022-07-29T03:33:51;85870.36;;;15.09;33.93
63708;BME280;50270;-25.964;28.072;2022-07-29T03:36:20;85874.89;;;15.22;33.79
63708;BME280;50270;-25.964;28.072;2022-07-29T03:38:49;85875.67;;;15.09;33.89
63708;BME280;50270;-25.964;28.072;2022-07-29T03:41:19;85876.13;;;14.82;33.99
63708;BME280;50270;-25.964;28.072;2022-07-29T03:43:52;85872.88;;;14.96;34.08
63708;BME280;50270;-25.964;28.072;2022-07-29T03:46:23;85874.65;;;15.05;33.99
63708;BME280;50270;-25.964;28.072;2022-07-29T03:48:57;85888.59;;;14.70;34.20
63708;BME280;50270;-25.964;28.072;2022-07-29T03:51:27;85892.67;;;15.26;34.03
63708;BME280;50270;-25.964;28.072;2022-07-29T03:53:55;85896.14;;;14.98;34.11
63708;BME280;50270;-25.964;28.072;2022-07-29T03:56:25;85895.09;;;15.05;34.03
63708;BME280;50270;-25.964;28.072;2022-07-29T03:58:55;85900.52;;;14.93;34.15
63708;BME280;50270;-25.964;28.072;2022-07-29T04:01:24;85897.97;;;15.22;34.10
63708;BME280;50270;-25.964;28.072;2022-07-29T04:03:55;85898.85;;;14.93;34.23
63708;BME280;50270;-25.964;28.072;2022-07-29T04:06:23;85899.99;;;15.14;34.26
63708;BME280;50270;-25.964;28.072;2022-07-29T04:08:52;85891.57;;;15.00;34.10
63708;BME280;50270;-25.964;28.072;2022-07-29T04:11:21;85887.34;;;14.90;34.24
63708;BME280;50270;-25.964;28.072;2022-07-29T04:13:49;85888.29;;;14.69;34.24
63708;BME280;50270;-25.964;28.072;2022-07-29T04:16:18;85902.20;;;14.96;34.16
63708;BME280;50270;-25.964;28.072;2022-07-29T04:18:47;85911.71;;;14.88;34.25
63708;BME280;50270;-25.964;28.072;2022-07-29T04:21:15;85914.73;;;14.89;34.27
63708;BME280;50270;-25.964;28.072;2022-07-29T04:23:44;85914.07;;;14.87;34.31
63708;BME280;50270;-25.964;28.072;2022-07-29T04:26:12;85912.63;;;14.88;34.28
63708;BME280;50270;-25.964;28.072;2022-07-29T04:28:40;85915.91;;;14.78;34.38
63708;BME280;50270;-25.964;28.072;2022-07-29T04:31:09;85911.63;;;15.10;34.27
63708;BME280;50270;-25.964;28.072;2022-07-29T04:33:37;85913.16;;;15.04;34.32
63708;BME280;50270;-25.964;28.072;2022-07-29T04:36:06;85916.52;;;14.78;34.31
63708;BME280;50270;-25.964;28.072;2022-07-29T04:38:35;85920.73;;;14.60;34.29
63708;BME280;50270;-25.964;28.072;2022-07-29T04:41:03;85916.58;;;14.76;34.35
63708;BME280;50270;-25.964;28.072;2022-07-29T04:43:31;85913.84;;;14.77;34.38
63708;BME280;50270;-25.964;28.072;2022-07-29T04:46:00;85913.97;;;14.74;34.19
63708;BME280;50270;-25.964;28.072;2022-07-29T04:48:29;85910.91;;;14.96;34.17
63708;BME280;50270;-25.964;28.072;2022-07-29T04:50:58;85904.82;;;15.22;34.15
63708;BME280;50270;-25.964;28.072;2022-07-29T04:53:32;85902.25;;;14.85;34.04
63708;BME280;50270;-25.964;28.072;2022-07-29T04:56:00;85904.22;;;14.89;33.96
63708;BME280;50270;-25.964;28.072;2022-07-29T04:58:30;85907.33;;;15.40;33.89
63708;BME280;50270;-25.964;28.072;2022-07-29T05:00:58;85904.93;;;14.82;34.09
63708;BME280;50270;-25.964;28.072;2022-07-29T05:03:27;85906.67;;;14.82;34.07
63708;BME280;50270;-25.964;28.072;2022-07-29T05:05:56;85907.64;;;15.07;33.97
63708;BME280;50270;-25.964;28.072;2022-07-29T05:08:24;85906.46;;;14.99;33.81
63708;BME280;50270;-25.964;28.072;2022-07-29T05:10:53;85904.44;;;15.07;33.91
63708;BME280;50270;-25.964;28.072;2022-07-29T05:13:22;85904.31;;;14.99;33.90
63708;BME280;50270;-25.964;28.072;2022-07-29T05:15:50;85916.80;;;15.20;33.93
63708;BME280;50270;-25.964;28.072;2022-07-29T05:18:19;85923.10;;;14.94;34.06
63708;BME280;50270;-25.964;28.072;2022-07-29T05:20:47;85926.20;;;15.09;34.07
63708;BME280;50270;-25.964;28.072;2022-07-29T05:23:15;85928.37;;;15.20;34.17
63708;BME280;50270;-25.964;28.072;2022-07-29T05:25:44;85928.59;;;15.04;34.08
63708;BME280;50270;-25.964;28.072;2022-07-29T05:28:12;85927.25;;;14.44;34.49
63708;BME280;50270;-25.964;28.072;2022-07-29T05:30:42;85928.62;;;14.65;34.55
63708;BME280;50270;-25.964;28.072;2022-07-29T05:33:10;85930.78;;;14.31;34.71
63708;BME280;50270;-25.964;28.072;2022-07-29T05:35:40;85930.63;;;14.53;34.74
63708;BME280;50270;-25.964;28.072;2022-07-29T05:38:08;85931.83;;;14.48;34.77
63708;BME280;50270;-25.964;28.072;2022-07-29T05:40:37;85926.87;;;14.67;34.56
63708;BME280;50270;-25.964;28.072;2022-07-29T05:43:05;85927.91;;;14.84;34.59
63708;BME280;50270;-25.964;28.072;2022-07-29T05:45:34;85930.21;;;14.89;34.62
63708;BME280;50270;-25.964;28.072;2022-07-29T05:48:03;85937.26;;;14.76;34.72
63708;BME280;50270;-25.964;28.072;2022-07-29T05:50:32;85934.18;;;14.70;34.82
63708;BME280;50270;-25.964;28.072;2022-07-29T05:53:00;85933.99;;;14.91;34.53
63708;BME280;50270;-25.964;28.072;2022-07-29T05:55:29;85931.77;;;14.55;34.74
63708;BME280;50270;-25.964;28.072;2022-07-29T05:57:58;85935.02;;;14.46;34.85
63708;BME280;50270;-25.964;28.072;2022-07-29T06:00:27;85929.51;;;14.56;34.75
63708;BME280;50270;-25.964;28.072;2022-07-29T06:02:55;85933.89;;;14.48;34.82
63708;BME280;50270;-25.964;28.072;2022-07-29T06:05:24;85929.75;;;14.64;34.92
63708;BME280;50270;-25.964;28.072;2022-07-29T06:07:52;85928.54;;;14.39;35.31
63708;BME280;50270;-25.964;28.072;2022-07-29T06:10:21;85924.60;;;14.64;34.95
63708;BME280;50270;-25.964;28.072;2022-07-29T06:12:50;85927.49;;;14.40;35.29
63708;BME280;50270;-25.964;28.072;2022-07-29T06:15:18;85928.79;;;14.76;34.86
63708;BME280;50270;-25.964;28.072;2022-07-29T06:17:47;85933.41;;;14.48;34.91
63708;BME280;50270;-25.964;28.072;2022-07-29T06:20:16;85936.44;;;14.60;34.77
63708;BME280;50270;-25.964;28.072;2022-07-29T06:22:45;85932.81;;;14.53;34.90
63708;BME280;50270;-25.964;28.072;2022-07-29T06:25:13;85933.95;;;14.82;34.86
63708;BME280;50270;-25.964;28.072;2022-07-29T06:27:42;85940.17;;;14.69;34.70
63708;BME280;50270;-25.964;28.072;2022-07-29T06:30:12;85944.43;;;14.61;34.85
63708;BME280;50270;-25.964;28.072;2022-07-29T06:32:41;85947.02;;;14.62;35.19
63708;BME280;50270;-25.964;28.072;2022-07-29T06:35:09;85948.05;;;14.86;34.84
63708;BME280;50270;-25.964;28.072;2022-07-29T06:37:40;85958.96;;;14.35;34.98
63708;BME280;50270;-25.964;28.072;2022-07-29T06:40:10;85962.80;;;14.70;34.86
63708;BME280;50270;-25.964;28.072;2022-07-29T06:42:42;85960.25;;;14.97;34.88
63708;BME280;50270;-25.964;28.072;2022-07-29T06:45:11;85956.34;;;15.19;34.61
63708;BME280;50270;-25.964;28.072;2022-07-29T06:47:40;85957.06;;;14.80;34.86
63708;BME280;50270;-25.964;28.072;2022-07-29T06:50:09;85965.49;;;14.72;35.04
63708;BME280;50270;-25.964;28.072;2022-07-29T06:52:37;85970.16;;;15.13;34.79
63708;BME280;50270;-25.964;28.072;2022-07-29T06:55:07;85974.97;;;14.87;34.59
63708;BME280;50270;-25.964;28.072;2022-07-29T06:57:35;85978.03;;;14.80;34.70
63708;BME280;50270;-25.964;28.072;2022-07-29T07:00:05;85981.68;;;14.74;34.80
63708;BME280;50270;-25.964;28.072;2022-07-29T07:02:33;85979.70;;;15.04;34.76
63708;BME280;50270;-25.964;28.072;2022-07-29T07:05:02;85982.18;;;14.80;34.81
63708;BME280;50270;-25.964;28.072;2022-07-29T07:07:31;85982.73;;;15.19;34.69
63708;BME280;50270;-25.964;28.072;2022-07-29T07:10:00;85981.59;;;14.86;34.89
63708;BME280;50270;-25.964;28.072;2022-07-29T07:12:29;85981.66;;;15.52;34.60
63708;BME280;50270;-25.964;28.072;2022-07-29T07:14:58;85978.97;;;15.13;34.53
63708;BME280;50270;-25.964;28.072;2022-07-29T07:17:26;85980.61;;;15.27;34.78
63708;BME280;50270;-25.964;28.072;2022-07-29T07:19:55;85982.62;;;15.43;34.59
63708;BME280;50270;-25.964;28.072;2022-07-29T07:22:23;85977.28;;;15.03;34.82
63708;BME280;50270;-25.964;28.072;2022-07-29T07:24:52;85977.57;;;15.50;34.85
63708;BME280;50270;-25.964;28.072;2022-07-29T07:27:20;85975.14;;;15.11;34.85
63708;BME280;50270;-25.964;28.072;2022-07-29T07:29:49;85970.50;;;14.99;35.05
63708;BME280;50270;-25.964;28.072;2022-07-29T07:32:17;85967.57;;;15.35;34.92
63708;BME280;50270;-25.964;28.072;2022-07-29T07:34:45;85970.25;;;15.16;34.85
63708;BME280;50270;-25.964;28.072;2022-07-29T07:37:14;85976.76;;;15.26;34.88
63708;BME280;50270;-25.964;28.072;2022-07-29T07:39:43;85974.15;;;15.15;35.08
63708;BME280;50270;-25.964;28.072;2022-07-29T07:42:12;85973.78;;;15.21;35.00
63708;BME280;50270;-25.964;28.072;2022-07-29T07:44:41;85980.58;;;15.36;35.21
63708;BME280;50270;-25.964;28.072;2022-07-29T07:47:09;85978.81;;;15.27;35.01
63708;BME280;50270;-25.964;28.072;2022-07-29T07:49:38;85975.68;;;15.15;35.35
63708;BME280;50270;-25.964;28.072;2022-07-29T07:52:06;85978.38;;;15.24;35.20
63708;BME280;50270;-25.964;28.072;2022-07-29T07:54:35;85977.63;;;15.31;35.17
63708;BME280;50270;-25.964;28.072;2022-07-29T07:57:03;85979.40;;;15.30;35.18
63708;BME280;50270;-25.964;28.072;2022-07-29T07:59:32;85975.58;;;15.56;34.91
63708;BME280;50270;-25.964;28.072;2022-07-29T08:02:01;85969.46;;;15.58;34.86
63708;BME280;50270;-25.964;28.072;2022-07-29T08:04:29;85971.30;;;15.73;34.74
63708;BME280;50270;-25.964;28.072;2022-07-29T08:06:59;85965.31;;;15.86;34.71
63708;BME280;50270;-25.964;28.072;2022-07-29T08:09:29;85964.71;;;15.88;34.58
63708;BME280;50270;-25.964;28.072;2022-07-29T08:11:58;85962.35;;;15.66;34.51
63708;BME280;50270;-25.964;28.072;2022-07-29T08:14:27;85964.94;;;16.05;34.40
63708;BME280;50270;-25.964;28.072;2022-07-29T08:16:56;85968.17;;;16.05;34.56
63708;BME280;50270;-25.964;28.072;2022-07-29T08:19:25;85964.43;;;16.04;34.51
63708;BME280;50270;-25.964;28.072;2022-07-29T08:21:53;85963.16;;;16.16;34.47
63708;BME280;50270;-25.964;28.072;2022-07-29T08:24:22;85961.19;;;15.91;34.49
63708;BME280;50270;-25.964;28.072;2022-07-29T08:26:51;85957.60;;;16.27;34.40
63708;BME280;50270;-25.964;28.072;2022-07-29T08:29:19;85954.12;;;16.26;34.42
63708;BME280;50270;-25.964;28.072;2022-07-29T08:31:48;85947.91;;;16.03;34.41
63708;BME280;50270;-25.964;28.072;2022-07-29T08:34:16;85951.33;;;16.44;34.42
63708;BME280;50270;-25.964;28.072;2022-07-29T08:36:45;85953.30;;;16.11;34.48
63708;BME280;50270;-25.964;28.072;2022-07-29T08:39:14;85956.36;;;16.23;34.33
63708;BME280;50270;-25.964;28.072;2022-07-29T08:41:44;85956.15;;;16.29;34.42
63708;BME280;50270;-25.964;28.072;2022-07-29T08:44:13;85956.94;;;16.63;34.43
63708;BME280;50270;-25.964;28.072;2022-07-29T08:46:44;85952.44;;;16.46;34.45
63708;BME280;50270;-25.964;28.072;2022-07-29T08:49:13;85953.44;;;16.32;34.30
63708;BME280;50270;-25.964;28.072;2022-07-29T08:51:42;85948.19;;;16.32;34.67
63708;BME280;50270;-25.964;28.072;2022-07-29T08:54:17;85945.64;;;16.36;34.48
63708;BME280;50270;-25.964;28.072;2022-07-29T08:56:50;85946.49;;;16.41;34.60
63708;BME280;50270;-25.964;28.072;2022-07-29T08:59:20;85946.56;;;16.49;34.44
63708;BME280;50270;-25.964;28.072;2022-07-29T09:01:53;85941.76;;;16.85;34.55
63708;BME280;50270;-25.964;28.072;2022-07-29T09:04:23;85936.06;;;16.65;34.59
63708;BME280;50270;-25.964;28.072;2022-07-29T09:06:54;85923.35;;;16.59;34.68
63708;BME280;50270;-25.964;28.072;2022-07-29T09:09:26;85916.69;;;17.17;34.68
63708;BME280;50270;-25.964;28.072;2022-07-29T09:11:54;85916.08;;;16.74;34.53
63708;BME280;50270;-25.964;28.072;2022-07-29T09:14:23;85923.65;;;16.73;34.43
63708;BME280;50270;-25.964;28.072;2022-07-29T09:16:54;85912.69;;;16.78;34.67
63708;BME280;50270;-25.964;28.072;2022-07-29T09:19:27;85910.81;;;16.91;34.50
63708;BME280;50270;-25.964;28.072;2022-07-29T09:21:56;85905.28;;;16.93;34.57
63708;BME280;50270;-25.964;28.072;2022-07-29T09:24:27;85901.64;;;16.95;34.37
63708;BME280;50270;-25.964;28.072;2022-07-29T09:27:10;85893.74;;;16.98;34.44
63708;BME280;50270;-25.964;28.072;2022-07-29T09:29:45;85889.33;;;17.10;34.38
63708;BME280;50270;-25.964;28.072;2022-07-29T09:32:13;85877.86;;;17.13;34.38
63708;BME280;50270;-25.964;28.072;2022-07-29T09:34:42;85871.20;;;17.16;34.43
63708;BME280;50270;-25.964;28.072;2022-07-29T09:37:10;85864.91;;;17.18;34.48
63708;BME280;50270;-25.964;28.072;2022-07-29T09:39:39;85852.99;;;17.21;34.49
63708;BME280;50270;-25.964;28.072;2022-07-29T09:42:08;85851.71;;;16.76;34.37
63708;BME280;50270;-25.964;28.072;2022-07-29T09:44:46;85851.47;;;17.38;34.42
63708;BME280;50270;-25.964;28.072;2022-07-29T09:47:17;85853.62;;;17.41;34.33
63708;BME280;50270;-25.964;28.072;2022-07-29T09:49:56;85853.30;;;17.28;34.50
63708;BME280;50270;-25.964;28.072;2022-07-29T09:52:25;85846.10;;;17.58;34.22
63708;BME280;50270;-25.964;28.072;2022-07-29T09:54:53;85842.04;;;17.55;34.25
63708;BME280;50270;-25.964;28.072;2022-07-29T09:57:32;85838.24;;;17.60;34.25
63708;BME280;50270;-25.964;28.072;2022-07-29T10:00:04;85832.86;;;17.39;34.38
63708;BME280;50270;-25.964;28.072;2022-07-29T10:02:35;85828.34;;;17.77;33.97
63708;BME280;50270;-25.964;28.072;2022-07-29T10:05:05;85831.05;;;17.27;34.26
63708;BME280;50270;-25.964;28.072;2022-07-29T10:07:45;85825.45;;;17.55;34.28
63708;BME280;50270;-25.964;28.072;2022-07-29T10:10:22;85822.34;;;17.89;33.67
63708;BME280;50270;-25.964;28.072;2022-07-29T10:12:54;85821.71;;;17.41;34.06
63708;BME280;50270;-25.964;28.072;2022-07-29T10:15:25;85814.44;;;17.86;33.55
63708;BME280;50270;-25.964;28.072;2022-07-29T10:17:54;85811.57;;;17.47;33.78
63708;BME280;50270;-25.964;28.072;2022-07-29T10:20:24;85805.31;;;17.82;33.52
63708;BME280;50270;-25.964;28.072;2022-07-29T10:22:54;85801.56;;;17.64;33.72
63708;BME280;50270;-25.964;28.072;2022-07-29T10:25:23;85800.70;;;18.11;33.31
63708;BME280;50270;-25.964;28.072;2022-07-29T10:27:52;85795.54;;;17.81;33.16
63708;BME280;50270;-25.964;28.072;2022-07-29T10:30:23;85793.08;;;17.80;33.30
63708;BME280;50270;-25.964;28.072;2022-07-29T10:33:10;85792.84;;;17.88;33.31
63708;BME280;50270;-25.964;28.072;2022-07-29T10:35:53;85783.38;;;17.92;33.18
63708;BME280;50270;-25.964;28.072;2022-07-29T10:39:03;85779.61;;;17.95;33.25
63708;BME280;50270;-25.964;28.072;2022-07-29T10:41:50;85778.27;;;18.01;33.04
63708;BME280;50270;-25.964;28.072;2022-07-29T10:44:22;85771.08;;;17.84;33.08
63708;BME280;50270;-25.964;28.072;2022-07-29T10:46:53;85771.06;;;18.11;33.01
63708;BME280;50270;-25.964;28.072;2022-07-29T10:49:22;85771.96;;;18.13;32.99
63708;BME280;50270;-25.964;28.072;2022-07-29T10:52:01;85765.46;;;18.17;32.88
63708;BME280;50270;-25.964;28.072;2022-07-29T10:54:47;85757.86;;;18.21;32.68
63708;BME280;50270;-25.964;28.072;2022-07-29T10:57:18;85756.62;;;18.28;32.61
63708;BME280;50270;-25.964;28.072;2022-07-29T10:59:48;85751.60;;;18.32;32.52
63708;BME280;50270;-25.964;28.072;2022-07-29T11:02:48;85741.91;;;18.29;32.84
63708;BME280;50270;-25.964;28.072;2022-07-29T11:05:18;85735.78;;;18.40;32.99
63708;BME280;50270;-25.964;28.072;2022-07-29T11:09:16;85726.24;;;18.40;32.84
63708;BME280;50270;-25.964;28.072;2022-07-29T11:11:45;85719.82;;;18.33;32.66
63708;BME280;50270;-25.964;28.072;2022-07-29T11:14:13;85719.88;;;18.56;32.75
63708;BME280;50270;-25.964;28.072;2022-07-29T11:17:14;85719.51;;;18.56;32.75
63708;BME280;50270;-25.964;28.072;2022-07-29T11:19:43;85718.72;;;18.64;32.66
63708;BME280;50270;-25.964;28.072;2022-07-29T11:22:12;85715.10;;;18.62;32.63
63708;BME280;50270;-25.964;28.072;2022-07-29T11:25:14;85716.47;;;18.36;32.58
63708;BME280;50270;-25.964;28.072;2022-07-29T11:27:43;85715.62;;;18.75;32.45
63708;BME280;50270;-25.964;28.072;2022-07-29T11:30:12;85716.98;;;18.25;32.46
63708;BME280;50270;-25.964;28.072;2022-07-29T11:32:42;85711.19;;;18.38;32.29
63708;BME280;50270;-25.964;28.072;2022-07-29T11:35:14;85706.58;;;18.60;32.38
63708;BME280;50270;-25.964;28.072;2022-07-29T11:37:43;85706.86;;;18.37;32.26
63708;BME280;50270;-25.964;28.072;2022-07-29T11:40:15;85702.77;;;18.90;32.17
63708;BME280;50270;-25.964;28.072;2022-07-29T11:42:46;85701.39;;;18.75;32.25
63708;BME280;50270;-25.964;28.072;2022-07-29T11:45:19;85695.34;;;18.51;32.14
63708;BME280;50270;-25.964;28.072;2022-07-29T11:47:50;85697.16;;;18.55;32.02
63708;BME280;50270;-25.964;28.072;2022-07-29T11:50:33;85690.11;;;18.86;32.07
63708;BME280;50270;-25.964;28.072;2022-07-29T11:53:10;85683.63;;;19.24;32.06
63708;BME280;50270;-25.964;28.072;2022-07-29T11:55:44;85684.69;;;18.70;31.99
63708;BME280;50270;-25.964;28.072;2022-07-29T11:58:12;85685.80;;;19.07;31.87
63708;BME280;50270;-25.964;28.072;2022-07-29T12:00:41;85684.01;;;18.76;31.98
63708;BME280;50270;-25.964;28.072;2022-07-29T12:03:10;85679.75;;;18.80;31.89
63708;BME280;50270;-25.964;28.072;2022-07-29T12:05:41;85677.88;;;18.87;31.72
63708;BME280;50270;-25.964;28.072;2022-07-29T12:08:17;85680.76;;;19.35;31.68
63708;BME280;50270;-25.964;28.072;2022-07-29T12:10:48;85674.25;;;18.93;31.65
63708;BME280;50270;-25.964;28.072;2022-07-29T12:13:18;85670.67;;;19.42;31.75
63708;BME280;50270;-25.964;28.072;2022-07-29T12:15:53;85666.16;;;19.25;31.59
63708;BME280;50270;-25.964;28.072;2022-07-29T12:18:22;85664.21;;;19.25;31.59
63708;BME280;50270;-25.964;28.072;2022-07-29T12:20:58;85666.61;;;19.01;31.69
63708;BME280;50270;-25.964;28.072;2022-07-29T12:23:26;85666.72;;;19.36;31.59
63708;BME280;50270;-25.964;28.072;2022-07-29T12:25:55;85658.80;;;19.11;31.58
63708;BME280;50270;-25.964;28.072;2022-07-29T12:28:23;85651.68;;;19.06;31.66
63708;BME280;50270;-25.964;28.072;2022-07-29T12:30:52;85654.12;;;19.40;31.46
63708;BME280;50270;-25.964;28.072;2022-07-29T12:33:23;85652.59;;;19.49;31.43
63708;BME280;50270;-25.964;28.072;2022-07-29T12:35:54;85646.03;;;19.48;31.37
63708;BME280;50270;-25.964;28.072;2022-07-29T12:38:24;85648.85;;;19.13;31.52
63708;BME280;50270;-25.964;28.072;2022-07-29T12:40:53;85646.90;;;19.53;31.31
63708;BME280;50270;-25.964;28.072;2022-07-29T12:43:23;85646.45;;;19.22;31.26
63708;BME280;50270;-25.964;28.072;2022-07-29T12:45:54;85647.62;;;19.25;31.14
63708;BME280;50270;-25.964;28.072;2022-07-29T12:48:37;85641.13;;;19.49;31.11
63708;BME280;50270;-25.964;28.072;2022-07-29T12:51:07;85644.88;;;19.29;30.95
63708;BME280;50270;-25.964;28.072;2022-07-29T12:53:36;85646.13;;;19.59;31.02
63708;BME280;50270;-25.964;28.072;2022-07-29T12:56:06;85645.08;;;19.32;30.94
63708;BME280;50270;-25.964;28.072;2022-07-29T12:58:42;85643.50;;;19.11;30.73
63708;BME280;50270;-25.964;28.072;2022-07-29T13:01:12;85637.99;;;19.38;30.74